createdAt,value
2023-03-26T00:01:13.449Z,73.67
2023-03-26T00:03:40.442Z,73.83
2023-03-26T00:06:10.455Z,74.06
2023-03-26T00:08:38.942Z,74.91
2023-03-26T00:11:07.733Z,75.59
2023-03-26T00:13:34.664Z,75.84
2023-03-26T00:16:01.799Z,75.33
2023-03-26T00:18:28.292Z,75.22
2023-03-26T00:20:54.768Z,75.81
2023-03-26T00:23:21.255Z,75.25
2023-03-26T00:25:49.456Z,75.55
2023-03-26T00:28:16.358Z,74.94
2023-03-26T00:30:43.298Z,74.76
2023-03-26T00:33:09.816Z,75.33
2023-03-26T00:35:37.075Z,75.70
2023-03-26T00:38:03.468Z,75.17
2023-03-26T00:40:29.848Z,74.86
2023-03-26T00:42:56.310Z,74.46
2023-03-26T00:45:22.771Z,74.26
2023-03-26T00:47:49.259Z,74.01
2023-03-26T00:50:15.805Z,74.43
2023-03-26T00:52:43.984Z,74.74
2023-03-26T00:55:10.639Z,75.45
2023-03-26T00:57:37.161Z,76.22
2023-03-26T01:00:13.441Z,76.71
2023-03-26T01:02:40.024Z,78.03
2023-03-26T01:05:34.336Z,77.97
2023-03-26T01:08:26.711Z,78.53
2023-03-26T01:10:55.587Z,79.02
2023-03-26T01:13:24.190Z,78.79
2023-03-26T01:15:51.521Z,78.69
2023-03-26T01:18:22.493Z,78.68
2023-03-26T01:20:50.841Z,78.83
2023-03-26T01:23:24.644Z,79.30
2023-03-26T01:26:04.172Z,79.08
2023-03-26T01:28:33.996Z,78.45
2023-03-26T01:31:21.306Z,78.62
2023-03-26T01:34:02.057Z,78.77
2023-03-26T01:36:39.663Z,78.68
2023-03-26T01:39:29.103Z,78.40
2023-03-26T01:42:02.652Z,78.28
2023-03-26T01:44:50.396Z,78.90
2023-03-26T01:47:18.380Z,78.74
2023-03-26T01:49:44.866Z,79.02
2023-03-26T01:52:21.592Z,77.92
2023-03-26T01:54:48.668Z,78.45
2023-03-26T01:57:23.919Z,78.24
2023-03-26T02:00:17.676Z,77.99
2023-03-26T02:02:56.197Z,78.12
2023-03-26T02:05:29.050Z,78.54
2023-03-26T02:08:19.832Z,78.08
2023-03-26T02:10:51.136Z,78.48
2023-03-26T02:13:17.756Z,78.07
2023-03-26T02:16:17.174Z,78.36
2023-03-26T02:18:45.236Z,78.28
2023-03-26T02:21:15.821Z,78.12
2023-03-26T02:23:44.378Z,76.22
2023-03-26T02:26:11.385Z,76.19
2023-03-26T02:28:38.283Z,76.01
2023-03-26T02:31:05.325Z,76.07
2023-03-26T02:33:32.714Z,75.44
2023-03-26T02:35:59.650Z,75.49
2023-03-26T02:38:26.517Z,74.77
2023-03-26T02:40:54.115Z,75.50
2023-03-26T02:43:20.572Z,75.53
2023-03-26T02:45:47.131Z,75.78
2023-03-26T02:48:13.971Z,75.73
2023-03-26T02:50:41.071Z,75.96
2023-03-26T02:53:07.832Z,76.14
2023-03-26T02:55:34.321Z,76.05
2023-03-26T02:58:00.781Z,75.74
2023-03-26T03:00:27.287Z,75.27
2023-03-26T03:02:53.791Z,72.85
2023-03-26T03:05:20.340Z,72.48
2023-03-26T03:07:46.859Z,72.33
2023-03-26T03:10:14.309Z,73.05
2023-03-26T03:12:41.985Z,73.29
2023-03-26T03:15:09.292Z,73.36
2023-03-26T03:17:35.682Z,73.81
2023-03-26T03:20:02.120Z,73.67
2023-03-26T03:22:28.893Z,73.03
2023-03-26T03:24:55.356Z,73.99
2023-03-26T03:27:21.802Z,74.68
2023-03-26T03:29:48.276Z,74.70
2023-03-26T03:32:14.748Z,75.37
2023-03-26T03:34:41.195Z,75.94
2023-03-26T03:37:07.682Z,75.90
2023-03-26T03:39:34.164Z,76.90
2023-03-26T03:42:00.675Z,76.35
2023-03-26T03:44:27.141Z,76.63
2023-03-26T03:46:53.648Z,76.84
2023-03-26T03:49:20.149Z,76.72
2023-03-26T03:51:46.646Z,77.01
2023-03-26T03:54:13.188Z,77.74
2023-03-26T03:56:39.772Z,77.05
2023-03-26T03:59:06.327Z,77.66
2023-03-26T04:01:32.790Z,77.63
2023-03-26T04:03:59.396Z,77.97
2023-03-26T04:06:26.091Z,77.72
2023-03-26T04:08:52.607Z,78.37
2023-03-26T04:11:19.122Z,77.92
2023-03-26T04:13:45.627Z,78.09
2023-03-26T04:16:12.145Z,78.31
2023-03-26T04:18:38.602Z,78.11
2023-03-26T04:21:05.838Z,78.69
2023-03-26T04:23:32.328Z,78.84
2023-03-26T04:26:02.510Z,78.39
2023-03-26T04:28:32.513Z,78.30
2023-03-26T04:31:01.142Z,78.22
2023-03-26T04:33:30.146Z,78.03
2023-03-26T04:35:57.324Z,78.14
2023-03-26T04:38:23.956Z,78.08
2023-03-26T04:40:50.416Z,78.57
2023-03-26T04:43:17.194Z,78.05
2023-03-26T04:45:44.444Z,78.04
2023-03-26T04:48:11.120Z,78.07
2023-03-26T04:50:37.619Z,78.74
2023-03-26T04:53:04.069Z,78.46
2023-03-26T04:55:41.690Z,78.13
2023-03-26T04:58:08.185Z,78.24
2023-03-26T05:00:34.874Z,78.17
2023-03-26T05:03:01.381Z,77.53
2023-03-26T05:05:29.053Z,77.27
2023-03-26T05:07:55.507Z,77.30
2023-03-26T05:10:22.172Z,76.89
2023-03-26T05:12:48.871Z,76.29
2023-03-26T05:15:15.967Z,76.62
2023-03-26T05:17:42.888Z,77.13
2023-03-26T05:20:19.415Z,76.28
2023-03-26T05:22:46.170Z,76.00
2023-03-26T05:25:13.663Z,75.96
2023-03-26T05:27:40.369Z,75.32
2023-03-26T05:30:08.142Z,74.19
2023-03-26T05:32:34.697Z,69.11
2023-03-26T05:35:02.066Z,63.21
2023-03-26T05:37:29.372Z,57.36
2023-03-26T05:39:55.701Z,52.57
2023-03-26T05:42:22.193Z,50.12
2023-03-26T05:44:49.053Z,48.00
2023-03-26T05:47:15.582Z,47.18
2023-03-26T05:49:42.115Z,47.37
2023-03-26T05:52:08.607Z,45.02
2023-03-26T05:54:35.120Z,43.92
2023-03-26T05:57:01.677Z,42.30
2023-03-26T05:59:28.469Z,41.89
2023-03-26T06:01:54.964Z,42.91
2023-03-26T06:04:21.564Z,40.42
2023-03-26T06:06:48.213Z,40.99
2023-03-26T06:09:14.692Z,43.18
2023-03-26T06:11:41.229Z,42.22
2023-03-26T06:14:07.739Z,39.59
2023-03-26T06:16:34.365Z,41.30
2023-03-26T06:19:00.880Z,41.28
2023-03-26T06:21:28.230Z,41.51
2023-03-26T06:23:55.460Z,42.08
2023-03-26T06:26:21.970Z,40.70
2023-03-26T06:28:48.772Z,42.01
2023-03-26T06:31:15.150Z,42.57
2023-03-26T06:33:41.607Z,40.95
2023-03-26T06:36:08.545Z,41.91
2023-03-26T06:38:35.164Z,42.29
2023-03-26T06:41:03.531Z,44.85
2023-03-26T06:43:30.062Z,43.80
2023-03-26T06:45:56.534Z,42.85
2023-03-26T06:48:22.989Z,42.03
2023-03-26T06:50:49.476Z,42.35
2023-03-26T06:53:15.962Z,41.14
2023-03-26T06:55:42.428Z,39.65
2023-03-26T06:58:11.859Z,39.26
2023-03-26T07:00:38.806Z,40.26
2023-03-26T07:03:06.228Z,39.25
2023-03-26T07:05:32.791Z,38.50
2023-03-26T07:07:59.265Z,39.60
2023-03-26T07:10:25.789Z,39.95
2023-03-26T07:12:53.152Z,39.67
2023-03-26T07:15:19.595Z,39.42
2023-03-26T07:17:46.116Z,40.44
2023-03-26T07:20:12.876Z,40.50
2023-03-26T07:22:39.677Z,39.28
2023-03-26T07:25:06.530Z,39.09
2023-03-26T07:27:51.141Z,39.15
2023-03-26T07:30:31.515Z,39.79
2023-03-26T07:33:00.835Z,39.52
2023-03-26T07:35:46.657Z,39.30
2023-03-26T07:38:28.377Z,38.40
2023-03-26T07:41:32.702Z,38.23
2023-03-26T07:44:01.929Z,38.12
2023-03-26T07:46:33.123Z,37.37
2023-03-26T07:49:00.217Z,38.59
2023-03-26T07:51:27.337Z,38.11
2023-03-26T07:53:54.105Z,37.42
2023-03-26T07:56:26.232Z,38.39
2023-03-26T07:59:23.193Z,38.49
2023-03-26T08:02:16.589Z,37.65
2023-03-26T08:04:54.382Z,36.89
2023-03-26T08:07:49.832Z,37.28
2023-03-26T08:10:23.531Z,37.29
2023-03-26T08:12:52.837Z,37.16
2023-03-26T08:15:28.387Z,35.83
2023-03-26T08:18:13.596Z,36.08
2023-03-26T08:20:48.916Z,35.89
2023-03-26T08:23:21.308Z,35.44
2023-03-26T08:25:57.340Z,34.47
2023-03-26T08:28:34.929Z,34.54
2023-03-26T08:31:01.693Z,34.66
2023-03-26T08:33:28.747Z,33.62
2023-03-26T08:35:55.301Z,32.88
2023-03-26T08:38:22.762Z,33.76
2023-03-26T08:41:10.939Z,33.92
2023-03-26T08:44:04.113Z,32.13
2023-03-26T08:47:09.937Z,31.72
2023-03-26T08:50:00.941Z,31.55
2023-03-26T08:52:45.790Z,32.66
2023-03-26T08:55:12.226Z,33.81
2023-03-26T08:57:59.998Z,31.31
2023-03-26T09:00:56.418Z,32.42
2023-03-26T09:03:50.770Z,31.48
2023-03-26T09:06:38.685Z,30.95
2023-03-26T09:09:22.133Z,32.09
2023-03-26T09:12:09.931Z,30.39
2023-03-26T09:14:57.784Z,30.27
2023-03-26T09:17:43.240Z,30.71
2023-03-26T09:20:30.624Z,29.90
2023-03-26T09:23:18.358Z,29.46
2023-03-26T09:25:44.776Z,29.66
2023-03-26T09:28:50.182Z,29.71
2023-03-26T09:31:52.468Z,30.30
2023-03-26T09:34:29.173Z,29.51
2023-03-26T09:37:25.622Z,30.48
2023-03-26T09:40:15.484Z,30.01
2023-03-26T09:43:00.119Z,30.86
2023-03-26T09:45:50.778Z,30.72
2023-03-26T09:48:43.393Z,31.29
2023-03-26T09:51:32.809Z,33.31
2023-03-26T09:54:25.013Z,32.90
2023-03-26T09:56:57.754Z,32.73
2023-03-26T10:00:01.524Z,33.93
2023-03-26T10:02:51.573Z,33.93
2023-03-26T10:05:18.019Z,32.81
2023-03-26T10:08:01.176Z,33.02
2023-03-26T10:10:55.675Z,34.03
2023-03-26T10:13:41.090Z,33.76
2023-03-26T10:16:19.518Z,32.56
2023-03-26T10:19:19.560Z,31.65
2023-03-26T10:21:59.607Z,33.13
2023-03-26T10:24:57.246Z,32.15
2023-03-26T10:27:32.573Z,32.83
2023-03-26T10:30:17.492Z,32.96
2023-03-26T10:32:51.183Z,31.40
2023-03-26T10:35:42.037Z,32.74
2023-03-26T10:38:35.562Z,31.91
2023-03-26T10:41:20.816Z,32.89
2023-03-26T10:44:07.348Z,31.98
2023-03-26T10:46:41.589Z,31.89
2023-03-26T10:49:37.117Z,32.63
2023-03-26T10:52:06.595Z,30.94
2023-03-26T10:54:53.355Z,28.33
2023-03-26T10:57:41.373Z,30.60
2023-03-26T11:00:18.071Z,27.00
2023-03-26T11:03:03.374Z,28.44
2023-03-26T11:05:51.464Z,27.91
2023-03-26T11:08:31.976Z,26.31
2023-03-26T11:11:19.393Z,25.36
2023-03-26T11:13:45.862Z,25.85
2023-03-26T11:16:34.038Z,26.48
2023-03-26T11:19:22.002Z,26.08
2023-03-26T11:22:20.472Z,25.99
2023-03-26T11:25:00.875Z,24.98
2023-03-26T11:27:52.766Z,22.27
2023-03-26T11:30:28.360Z,23.25
2023-03-26T11:33:00.212Z,24.79
2023-03-26T11:35:39.591Z,24.82
2023-03-26T11:38:17.167Z,24.50
2023-03-26T11:40:46.025Z,25.34
2023-03-26T11:43:14.737Z,25.16
2023-03-26T11:45:46.449Z,25.39
2023-03-26T11:48:24.721Z,25.91
2023-03-26T11:50:58.359Z,24.93
2023-03-26T11:53:29.442Z,22.64
2023-03-26T11:56:04.207Z,23.17
2023-03-26T11:58:54.501Z,24.86
2023-03-26T12:01:49.170Z,22.80
2023-03-26T12:04:18.334Z,22.29
2023-03-26T12:07:06.662Z,22.57
2023-03-26T12:09:33.166Z,23.04
2023-03-26T12:12:00.604Z,22.19
2023-03-26T12:14:29.957Z,22.39
2023-03-26T12:17:07.004Z,22.73
2023-03-26T12:19:42.487Z,22.88
2023-03-26T12:22:37.502Z,23.39
2023-03-26T12:25:25.327Z,21.58
2023-03-26T12:27:57.491Z,21.13
2023-03-26T12:30:26.877Z,21.23
2023-03-26T12:32:58.957Z,21.28
2023-03-26T12:35:27.946Z,22.83
2023-03-26T12:37:56.709Z,20.99
2023-03-26T12:40:29.372Z,21.40
2023-03-26T12:44:49.470Z,21.29
2023-03-26T12:46:03.728Z,20.69
2023-03-26T12:48:41.640Z,20.84
2023-03-26T12:51:19.354Z,19.84
2023-03-26T12:54:06.512Z,19.51
2023-03-26T12:56:42.761Z,20.23
2023-03-26T12:59:21.125Z,20.05
2023-03-26T13:01:52.722Z,19.85
2023-03-26T13:04:36.330Z,18.71
2023-03-26T13:07:21.660Z,20.90
2023-03-26T13:09:52.834Z,19.17
2023-03-26T13:13:04.982Z,21.28
2023-03-26T13:15:38.847Z,20.34
2023-03-26T13:18:13.227Z,19.68
2023-03-26T13:20:54.711Z,19.31
2023-03-26T13:23:27.317Z,20.31
2023-03-26T13:26:23.059Z,18.44
2023-03-26T13:29:22.149Z,18.91
2023-03-26T13:32:03.753Z,19.17
2023-03-26T13:35:12.278Z,18.67
2023-03-26T13:37:54.189Z,18.75
2023-03-26T13:40:42.497Z,18.89
2023-03-26T13:43:30.875Z,18.51
2023-03-26T13:46:18.505Z,20.28
2023-03-26T13:48:57.567Z,19.87
2023-03-26T13:51:27.198Z,18.78
2023-03-26T13:54:22.528Z,18.91
2023-03-26T13:57:06.297Z,18.89
2023-03-26T13:59:40.710Z,18.75
2023-03-26T14:02:23.161Z,19.18
2023-03-26T14:04:56.587Z,18.36
2023-03-26T14:07:27.260Z,19.42
2023-03-26T14:10:01.651Z,19.24
2023-03-26T14:12:34.111Z,18.60
2023-03-26T14:15:05.152Z,18.63
2023-03-26T14:17:55.413Z,17.84
2023-03-26T14:20:43.493Z,19.16
2023-03-26T14:23:22.173Z,18.69
2023-03-26T14:26:04.236Z,19.23
2023-03-26T14:28:51.600Z,19.25
2023-03-26T14:31:35.734Z,18.88
2023-03-26T14:34:22.263Z,19.52
2023-03-26T14:37:13.122Z,18.71
2023-03-26T14:39:48.619Z,19.14
2023-03-26T14:42:36.140Z,19.15
2023-03-26T14:45:27.601Z,19.44
2023-03-26T14:48:31.584Z,19.85
2023-03-26T14:51:17.521Z,19.44
2023-03-26T14:53:52.337Z,20.74
2023-03-26T14:56:24.543Z,19.92
2023-03-26T14:59:06.165Z,19.31
2023-03-26T15:01:56.104Z,19.96
2023-03-26T15:04:41.188Z,21.63
2023-03-26T15:07:48.921Z,22.08
2023-03-26T15:10:43.014Z,22.40
2023-03-26T15:13:33.786Z,22.79
2023-03-26T15:16:45.040Z,22.74
2023-03-26T15:20:00.546Z,24.65
2023-03-26T15:22:45.633Z,25.25
2023-03-26T15:25:14.834Z,24.08
2023-03-26T15:28:05.411Z,24.76
2023-03-26T15:30:34.976Z,25.93
2023-03-26T15:33:25.912Z,26.29
2023-03-26T15:36:11.191Z,23.75
2023-03-26T15:39:02.324Z,23.66
2023-03-26T16:10:32.536Z,27.75
2023-03-26T16:13:17.392Z,29.18
2023-03-26T16:15:53.227Z,28.79
2023-03-26T16:18:28.411Z,26.68
2023-03-26T16:21:03.347Z,28.46
2023-03-26T16:23:55.058Z,27.42
2023-03-26T16:26:54.531Z,27.82
2023-03-26T16:29:23.196Z,29.88
2023-03-26T16:32:08.324Z,28.15
2023-03-26T16:34:52.911Z,29.74
2023-03-26T16:37:42.393Z,31.93
2023-03-26T16:40:17.719Z,32.36
2023-03-26T16:43:18.016Z,33.12
2023-03-26T16:45:50.345Z,33.75
2023-03-26T16:48:29.493Z,35.11
2023-03-26T16:51:14.268Z,35.77
2023-03-26T16:54:00.554Z,37.03
2023-03-26T16:56:50.147Z,37.47
2023-03-26T17:00:07.846Z,39.71
2023-03-26T17:02:40.852Z,40.17
2023-03-26T17:05:32.487Z,38.81
2023-03-26T17:08:14.710Z,37.82
2023-03-26T17:11:00.342Z,39.00
2023-03-26T17:14:00.178Z,40.41
2023-03-26T17:16:34.149Z,41.18
2023-03-26T17:19:19.027Z,42.33
2023-03-26T17:22:16.603Z,42.73
2023-03-26T17:25:14.524Z,42.21
2023-03-26T17:27:51.614Z,42.61
2023-03-26T17:30:30.241Z,44.31
2023-03-26T17:33:02.470Z,44.93
2023-03-26T17:35:47.715Z,45.66
2023-03-26T17:38:16.895Z,45.79
2023-03-26T17:40:58.421Z,45.90
2023-03-26T17:43:48.810Z,45.17
2023-03-26T17:46:47.116Z,45.60
2023-03-26T17:49:22.131Z,45.82
2023-03-26T17:51:58.165Z,44.84
2023-03-26T17:54:38.975Z,45.33
2023-03-26T17:57:29.951Z,46.82
2023-03-26T17:59:58.752Z,46.61
2023-03-26T18:02:36.945Z,47.28
2023-03-26T18:05:07.991Z,47.27
2023-03-26T18:07:55.545Z,47.34
2023-03-26T18:10:52.380Z,48.66
2023-03-26T18:13:31.225Z,49.17
2023-03-26T18:16:13.994Z,49.36
2023-03-26T18:19:04.617Z,49.49
2023-03-26T18:21:39.498Z,49.37
2023-03-26T18:24:08.361Z,49.34
2023-03-26T18:26:41.334Z,49.40
2023-03-26T18:29:19.771Z,50.19
2023-03-26T18:31:49.269Z,49.94
2023-03-26T18:34:17.149Z,49.70
2023-03-26T18:36:43.659Z,50.23
2023-03-26T18:39:13.083Z,50.72
2023-03-26T18:41:42.159Z,51.71
2023-03-26T18:44:16.037Z,51.88
2023-03-26T18:46:43.070Z,50.70
2023-03-26T18:49:15.581Z,51.07
2023-03-26T18:51:56.161Z,52.43
2023-03-26T18:54:24.950Z,52.44
2023-03-26T18:56:51.455Z,52.77
2023-03-26T18:59:31.176Z,53.03
2023-03-26T19:02:10.515Z,52.56
2023-03-26T19:04:37.932Z,52.84
2023-03-26T19:07:09.072Z,52.98
2023-03-26T19:09:35.959Z,53.48
2023-03-26T19:12:21.208Z,53.30
2023-03-26T19:15:04.565Z,53.35
2023-03-26T19:17:40.588Z,53.79
2023-03-26T19:20:15.373Z,54.84
2023-03-26T19:22:42.448Z,54.45
2023-03-26T19:25:19.220Z,54.45
2023-03-26T19:27:45.796Z,55.07
2023-03-26T19:30:20.959Z,55.10
2023-03-26T19:32:53.680Z,55.95
2023-03-26T19:35:22.433Z,55.72
2023-03-26T19:37:50.735Z,57.01
2023-03-26T19:40:23.058Z,57.01
2023-03-26T19:42:49.618Z,56.77
2023-03-26T19:45:19.733Z,56.81
2023-03-26T19:47:54.323Z,57.28
2023-03-26T19:50:30.000Z,57.96
2023-03-26T19:53:16.113Z,58.01
2023-03-26T19:55:53.672Z,57.48
2023-03-26T19:58:20.244Z,56.67
2023-03-26T20:00:46.846Z,56.79
2023-03-26T20:03:14.520Z,56.58
2023-03-26T20:05:41.150Z,56.99
2023-03-26T20:08:15.712Z,56.73
2023-03-26T20:10:42.917Z,56.57
2023-03-26T20:13:13.588Z,57.52
2023-03-26T20:15:40.804Z,57.50
2023-03-26T20:18:07.335Z,57.82
2023-03-26T20:20:34.010Z,57.93
2023-03-26T20:23:00.503Z,57.28
2023-03-26T20:25:32.320Z,58.91
2023-03-26T20:27:58.920Z,58.96
2023-03-26T20:33:12.888Z,58.95
2023-03-26T20:35:40.216Z,59.18
2023-03-26T20:38:06.773Z,58.98
2023-03-26T20:40:33.258Z,59.13
2023-03-26T20:42:59.708Z,58.80
2023-03-26T20:45:26.171Z,59.30
2023-03-26T20:47:52.629Z,58.70
2023-03-26T20:50:21.703Z,58.20
2023-03-26T20:52:49.624Z,58.91
2023-03-26T20:55:18.742Z,59.33
2023-03-26T20:57:45.211Z,58.98
2023-03-26T21:00:12.787Z,59.72
2023-03-26T21:02:41.866Z,60.71
2023-03-26T21:05:11.060Z,59.33
2023-03-26T21:07:37.730Z,60.39
2023-03-26T21:10:04.740Z,60.24
2023-03-26T21:12:34.668Z,61.78
2023-03-26T21:15:03.293Z,61.74
2023-03-26T21:17:31.855Z,61.96
2023-03-26T21:19:58.574Z,60.81
2023-03-26T21:22:37.271Z,61.46
2023-03-26T21:25:23.956Z,61.60
2023-03-26T21:28:15.269Z,60.32
2023-03-26T21:30:41.986Z,60.70
2023-03-26T21:33:08.530Z,60.36
2023-03-26T21:35:35.500Z,61.17
2023-03-26T21:38:04.153Z,60.59
2023-03-26T21:40:30.903Z,61.33
2023-03-26T21:42:57.830Z,61.03
2023-03-26T21:45:24.632Z,61.26
2023-03-26T21:47:51.469Z,62.28
2023-03-26T21:50:20.532Z,61.62
2023-03-26T21:52:47.618Z,61.95
2023-03-26T21:55:14.723Z,62.66
2023-03-26T21:57:47.280Z,63.06
2023-03-26T22:00:17.198Z,63.46
2023-03-26T22:03:25.069Z,64.07
2023-03-26T22:05:59.443Z,63.93
2023-03-26T22:08:40.766Z,64.33
2023-03-26T22:11:10.078Z,65.21
2023-03-26T22:13:36.966Z,64.69
2023-03-26T22:16:03.760Z,65.70
2023-03-26T22:18:30.389Z,64.71
2023-03-26T22:20:57.706Z,65.16
2023-03-26T22:23:24.360Z,64.88
2023-03-26T22:25:50.817Z,65.51
2023-03-26T22:28:17.424Z,65.47
2023-03-26T22:30:44.004Z,65.66
2023-03-26T22:33:10.913Z,66.42
2023-03-26T22:35:38.617Z,65.84
2023-03-26T22:38:05.488Z,65.20
2023-03-26T22:40:31.905Z,66.40
2023-03-26T22:42:58.352Z,65.72
2023-03-26T22:45:24.859Z,65.84
2023-03-26T22:47:51.435Z,66.70
2023-03-26T22:50:29.710Z,67.06
2023-03-26T22:52:56.240Z,67.78
2023-03-26T22:55:28.783Z,68.17
2023-03-26T22:57:56.105Z,68.13
2023-03-26T23:00:22.704Z,68.35
2023-03-26T23:02:49.282Z,67.46
2023-03-26T23:05:16.380Z,68.21
2023-03-26T23:07:43.147Z,68.24
2023-03-26T23:10:10.705Z,68.16
2023-03-26T23:12:38.325Z,67.94
2023-03-26T23:15:06.149Z,67.07
2023-03-26T23:17:34.337Z,66.98
2023-03-26T23:20:02.458Z,67.07
2023-03-26T23:22:28.923Z,66.83
2023-03-26T23:24:55.358Z,66.72
2023-03-26T23:27:22.738Z,66.37
2023-03-26T23:29:49.212Z,66.84
2023-03-26T23:32:24.062Z,68.17
2023-03-26T23:34:51.927Z,67.95
2023-03-26T23:37:19.065Z,68.35
2023-03-26T23:39:45.516Z,67.84
2023-03-26T23:42:11.966Z,67.42
2023-03-26T23:44:38.406Z,68.03
2023-03-26T23:47:05.011Z,67.71
2023-03-26T23:49:31.460Z,68.05
2023-03-26T23:51:57.907Z,67.88
2023-03-26T23:54:24.366Z,68.13
2023-03-26T23:56:50.870Z,68.02
2023-03-26T23:59:17.395Z,67.77
